ADDS METAR Data INFO
IDs: Format: Raw Decoded Include TAF

Data at: 1544 UTC 12 Dec 2017

KZZV 121453Z AUTO 30012G24KT 10SM SCT024 BKN050 OVC070 M02/M07 A2979 RMK AO2 SNB1359E36 SLP096 P0000 60001 T10171067 53024
KZZV 121432Z AUTO 31013G20KT 8SM -SN FEW017 BKN038 OVC070 M02/M05 A2978 RMK AO2 SNB1359 P0000 T10171050
KZZV 121425Z AUTO 32014G22KT 1 3/4SM -SN FEW017 BKN038 OVC045 M02/M05 A2978 RMK AO2 SNB1359 P0000 T10171050
KZZV 121419Z AUTO 32017G25KT 3/4SM -SN BR FEW008 SCT021 OVC037 M02/M04 A2977 RMK AO2 SNB1359 P0000 T10221044
KZZV 121414Z AUTO 33017G23KT 1 1/4SM -SN FEW015 BKN026 OVC075 M02/M04 A2977 RMK AO2 SNB1359 P0000 T10171044
KZZV 121353Z AUTO 31012G20KT 10SM FEW025 FEW050 OVC075 00/M05 A2975 RMK AO2 SNE09 SLP083 P0000 T00001050
KZZV 121314Z AUTO 30012KT 8SM FEW018 BKN038 OVC046 01/M03 A2974 RMK AO2 SNE09 P0000 T00061028
KZZV 121253Z AUTO 29008KT 6SM -SN SCT016 BKN025 OVC070 01/M02 A2974 RMK AO2 SLP077 P0001 T00061022
KZZV 121228Z AUTO 28011KT 3SM -SN BR BKN015 OVC023 01/M02 A2973 RMK AO2 P0001 T00061017
KZZV 121221Z AUTO 28008KT 3SM -SN BR BKN014 OVC023 01/M02 A2972 RMK AO2 P0001 T00061017
KZZV 121206Z AUTO 28008KT 3SM -SN BR FEW010 OVC016 01/M02 A2972 RMK AO2 P0001 T00061017
KZZV 121153Z AUTO 28008KT 2SM -SN BR BKN014 OVC018 01/M02 A2972 RMK AO2 SNB08 SLP071 P0000 60000 T00061017 10050 20006 51018
KZZV 121135Z AUTO 27007KT 2 1/2SM -SN BR OVC014 01/M02 A2971 RMK AO2 SNB08 P0000 T00061017
KZZV 121118Z AUTO 29012KT 3SM -SN BR OVC014 01/M02 A2971 RMK AO2 SNB08 P0000 T00061017
KZZV 121053Z AUTO 29009G23KT 7SM BKN015 OVC020 02/M02 A2969 RMK AO2 SLP060 T00171022
KZZV 120953Z AUTO 30011G18KT 10SM OVC024 03/M02 A2966 RMK AO2 SLP050 T00281022
KZZV 120853Z AUTO 26012KT 10SM OVC029 04/M03 A2965 RMK AO2 SLP044 T00391028 51013
KZZV 120753Z AUTO 26012G22KT 10SM BKN034 BKN055 04/M03 A2964 RMK AO2 SLP042 T00391028
KZZV 120653Z AUTO 25011KT 10SM OVC065 05/M03 A2962 RMK AO2 SLP033 T00501028
KZZV 120553Z AUTO 23008KT 10SM BKN100 04/M03 A2961 RMK AO2 SLP031 T00391033 10039 21017 56023
KZZV 120453Z AUTO 20007KT 10SM FEW120 02/M04 A2962 RMK AO2 SLP035 T00221039 400391017
KZZV 120353Z AUTO 20005KT 10SM CLR 01/M05 A2965 RMK AO2 SLP047 T00061050
KZZV 120253Z AUTO 13004KT 10SM FEW120 01/M04 A2968 RMK AO2 SLP057 T00111044 58036
KZZV 120153Z AUTO 14004KT 10SM FEW110 01/M04 A2972 RMK AO2 SLP070 T00061044
KZZV 120053Z AUTO 13005KT 10SM CLR 00/M05 A2976 RMK AO2 SLP087 T00001050
KZZV 112353Z AUTO 00000KT 10SM CLR 00/M06 A2979 RMK AO2 SLP094 T00001056 10039 20000 56025
KZZV 112253Z AUTO 10003KT 10SM CLR 02/M05 A2980 RMK AO2 SLP097 T00221050
KZZV 112153Z AUTO 00000KT 10SM FEW050 FEW120 03/M05 A2985 RMK AO2 SLP114 T00331050
KZZV 112053Z AUTO 20004KT 10SM BKN100 04/M05 A2986 RMK AO2 SLP119 T00391050 56029
KZZV 111953Z AUTO 17006KT 10SM SCT060 BKN075 OVC110 03/M06 A2988 RMK AO2 SLP125 T00331056
KZZV 111853Z AUTO 18010KT 10SM BKN075 BKN095 03/M06 A2993 RMK AO2 SLP140 T00331056
KZZV 111753Z AUTO 17010KT 10SM SCT090 03/M06 A2995 RMK AO2 SLP150 T00281061 10028 21006 58037
KZZV 111653Z AUTO 18006KT 10SM SCT085 BKN110 02/M06 A2999 RMK AO2 PRESFR SLP164 T00171061
KZZV 111613Z AUTO 23005KT 10SM SCT027 SCT120 01/M06 A3004 RMK AO2 T00111061
KZZV 111553Z AUTO VRB04KT 10SM BKN026 01/M06 A3005 RMK AO2 SLP182 T00061061
KZZV 111518Z AUTO 27004KT 10SM SCT025 SCT120 01/M06 A3005 RMK AO2 T00061061
KZZV 111453Z AUTO 25006KT 10SM OVC025 00/M07 A3007 RMK AO2 SLP189 T00001067 55001
KZZV 111353Z AUTO 25005KT 10SM OVC026 M01/M07 A3006 RMK AO2 SLP187 T10061067
KZZV 111253Z AUTO 25003KT 10SM OVC026 M01/M07 A3007 RMK AO2 SLP189 T10061067
KZZV 111153Z AUTO 00000KT 10SM OVC028 M01/M07 A3007 RMK AO2 SLP190 T10061067 10011 21006 53005
KZZV 111053Z AUTO 31005KT 10SM OVC028 M01/M07 A3006 RMK AO2 SLP189 T10061067
KZZV 111008Z AUTO 29005KT 10SM OVC030 00/M07 A3006 RMK AO2 T00001067
KZZV 110953Z AUTO 29006KT 10SM OVC029 00/M07 A3006 RMK AO2 SLP186 T00001067
KZZV 110951Z AUTO 29005KT 10SM OVC029 00/M07 A3005 RMK AO2
KZZV 110853Z AUTO 29007KT 10SM OVC032 01/M07 A3004 RMK AO2 SLP179 T00061067 51015
KZZV 110753Z AUTO 28009KT 10SM OVC033 01/M06 A3003 RMK AO2 SLP177 T00111061
KZZV 110653Z AUTO 26004KT 10SM OVC038 01/M07 A3001 RMK AO2 SLP170 T00061067
KZZV 110553Z AUTO 21005KT 10SM OVC040 01/M07 A2999 RMK AO2 SLP164 T00061072 10006 21011 55003
KZZV 110453Z AUTO 21006KT 10SM OVC042 00/M07 A2998 RMK AO2 SLP162 T00001072 400001033
KZZV 110353Z AUTO 21005KT 10SM OVC042 00/M08 A2999 RMK AO2 SLP165 T00001078